Time;durP1;ratioP1;P1;durP2;ratioP2;P2;SDS_P1;SDS_P2;PMS_P1;PMS_P2;Temp;Humidity;BMP_temperature;BMP_pressure;BME280_temperature;BME280_humidity;BME280_pressure;Samples;Min_cycle;Max_cycle;Signal;HPM_P1;HPM_P2
2023/07/27 00:01:57;;;;;;;;;;;;;;;;;;5049410;28;4866;-62
2023/07/27 00:04:22;;;;;;;;;;;;;;;;;;5048515;28;5087;-61
2023/07/27 00:06:48;;;;;;;;;;;;;;;;;;5049599;28;4521;-61
2023/07/27 00:09:13;;;;;;;;;;;;;;;;;;5041752;28;5171;-62
2023/07/27 00:11:39;;;;;;;;;;;;;;;;;;5030344;28;1673;-62
2023/07/27 00:14:04;;;;;;;;;;;;;;;;;;5041775;28;4963;-62
2023/07/27 00:16:29;;;;;;;;;;;;;;;;;;5049123;28;4455;-62
2023/07/27 00:18:54;;;;;;;;;;;;;;;;;;5041559;28;4873;-62
2023/07/27 00:21:21;;;;;;;;;;;;;;;;;;5048969;28;5009;-61
2023/07/27 00:23:46;;;;;;;;;;;;;;;;;;5045839;28;4967;-61
2023/07/27 00:26:11;;;;;;;;;;;;;;;;;;5024251;28;1914;-61
2023/07/27 00:28:36;;;;;;;;;;;;;;;;;;5044549;28;5020;-62
2023/07/27 00:31:02;;;;;;;;;;;;;;;;;;5030913;28;5052;-62
2023/07/27 00:33:27;;;;;;;;;;;;;;;;;;5048004;28;4843;-62
2023/07/27 00:35:58;;;;;;;;;;;;;;;;;;5028828;28;4552;-63
2023/07/27 00:38:23;;;;;;;;;;;;;;;;;;5048293;28;1188;-62
2023/07/27 00:40:49;;;;;;;;;;;;;;;;;;5048418;28;4669;-62
2023/07/27 00:43:14;;;;;;;;;;;;;;;;;;5024766;28;5094;-63
2023/07/27 00:45:39;;;;;;;;;;;;;;;;;;5046271;28;4537;-62
2023/07/27 00:48:04;;;;;;;;;;;;;;;;;;5045660;28;5018;-63
2023/07/27 00:50:30;;;;;;;;;;;;;;;;;;5045332;28;4812;-62
2023/07/27 00:52:56;;;;;;;;;;;;;;;;;;5029488;28;5047;-62
2023/07/27 00:55:21;;;;;;;;;;;;;;;;;;5044955;28;4994;-62
2023/07/27 00:57:46;;;;;;;;;;;;;;;;;;5029680;28;5338;-62
2023/07/27 01:00:13;;;;;;;;;;;;;;;;;;5029751;28;4946;-63
2023/07/27 01:02:38;;;;;;;;;;;;;;;;;;5030908;28;1108;-62
2023/07/27 01:05:04;;;;;;;;;;;;;;;;;;5047281;28;5014;-62
2023/07/27 01:07:29;;;;;;;;;;;;;;;;;;5047972;28;5061;-62
2023/07/27 01:09:54;;;;;;;;;;;;;;;;;;5041853;28;4942;-61
2023/07/27 01:12:27;;;;;;;;;;;;;;;;;;5030310;28;4948;-62
2023/07/27 01:14:56;;;;;;;;;;;;;;;;;;5024259;28;4640;-61
2023/07/27 01:17:21;;;;;;;;;;;;;;;;;;5029993;28;1283;-61
2023/07/27 01:20:01;;;;;;;;;;;;;;;;;;5042963;28;4943;-61
2023/07/27 01:22:32;;;;;;;;;;;;;;;;;;5029896;28;4498;-61
2023/07/27 01:25:13;;;;;;;;;;;;;;;;;;5038948;28;4424;-62
2023/07/27 01:27:38;;;;;;;;;;;;;;;;;;5047775;28;4865;-60
2023/07/27 01:30:06;;;;;;;;;;;;;;;;;;5047464;28;4473;-62
2023/07/27 01:32:31;;;;;;;;;;;;;;;;;;5064890;28;1061;-63
2023/07/27 01:34:58;;;;;;;;;;;;;;;;;;5034190;28;5635;-62
2023/07/27 01:37:23;;;;;;;;;;;;;;;;;;5066384;28;5012;-63
2023/07/27 01:39:49;;;;;;;;;;;;;;;;;;5044044;28;4860;-62
2023/07/27 01:42:15;;;;;;;;;;;;;;;;;;5040566;28;5259;-60
2023/07/27 01:44:40;;;;;;;;;;;;;;;;;;5045456;28;4845;-57
2023/07/27 01:47:06;;;;;;;;;;;;;;;;;;5046607;28;1977;-62
2023/07/27 01:49:31;;;;;;;;;;;;;;;;;;5046381;28;5036;-62
2023/07/27 01:51:57;;;;;;;;;;;;;;;;;;5040439;28;5181;-62
2023/07/27 01:54:22;;;;;;;;;;;;;;;;;;5043932;28;4540;-63
2023/07/27 01:56:47;;;;;;;;;;;;;;;;;;5048629;28;4487;-62
2023/07/27 01:59:12;;;;;;;;;;;;;;;;;;5031264;28;1741;-64
2023/07/27 02:01:38;;;;;;;;;;;;;;;;;;5066886;28;4472;-60
2023/07/27 02:04:04;;;;;;;;;;;;;;;;;;5065288;28;5017;-63
2023/07/27 02:06:29;;;;;;;;;;;;;;;;;;5062855;28;5013;-62
2023/07/27 02:08:54;;;;;;;;;;;;;;;;;;5064548;28;4952;-63
2023/07/27 02:11:19;;;;;;;;;;;;;;;;;;5066990;28;1254;-62
2023/07/27 02:13:45;;;;;;;;;;;;;;;;;;5046800;28;5439;-62
2023/07/27 02:16:14;;;;;;;;;;;;;;;;;;5066687;28;4622;-61
2023/07/27 02:18:40;;;;;;;;;;;;;;;;;;5047188;28;4452;-61
2023/07/27 02:21:05;;;;;;;;;;;;;;;;;;5047981;28;5172;-62
2023/07/27 02:23:30;;;;;;;;;;;;;;;;;;5067459;28;1082;-62
2023/07/27 02:25:55;;;;;;;;;;;;;;;;;;5029469;28;5118;-62
2023/07/27 02:28:25;;;;;;;;;;;;;;;;;;5066303;28;4433;-61
2023/07/27 02:30:51;;;;;;;;;;;;;;;;;;5066315;28;5132;-62
2023/07/27 02:33:16;;;;;;;;;;;;;;;;;;5066894;28;4654;-60
2023/07/27 02:35:41;;;;;;;;;;;;;;;;;;5060027;28;4890;-60
2023/07/27 02:38:06;;;;;;;;;;;;;;;;;;5066865;28;1092;-62
2023/07/27 02:40:32;;;;;;;;;;;;;;;;;;5066073;28;5081;-61
2023/07/27 02:42:57;;;;;;;;;;;;;;;;;;5064442;28;5072;-62
2023/07/27 02:45:22;;;;;;;;;;;;;;;;;;5066503;28;5222;-62
2023/07/27 02:47:47;;;;;;;;;;;;;;;;;;5066620;28;5165;-62
2023/07/27 02:50:13;;;;;;;;;;;;;;;;;;5066406;28;4982;-62
2023/07/27 02:52:38;;;;;;;;;;;;;;;;;;5048716;28;4464;-61
2023/07/27 02:55:03;;;;;;;;;;;;;;;;;;5062402;28;4742;-61
2023/07/27 02:57:29;;;;;;;;;;;;;;;;;;5066346;28;5042;-62
2023/07/27 02:59:54;;;;;;;;;;;;;;;;;;5066024;28;5237;-62
2023/07/27 03:02:19;;;;;;;;;;;;;;;;;;5066755;28;1536;-62
2023/07/27 03:04:44;;;;;;;;;;;;;;;;;;5062158;28;4910;-62
2023/07/27 03:07:10;;;;;;;;;;;;;;;;;;5066183;28;4955;-62
2023/07/27 03:09:35;;;;;;;;;;;;;;;;;;5064216;28;4982;-61
2023/07/27 03:12:00;;;;;;;;;;;;;;;;;;5052966;28;5052;-61
2023/07/27 03:14:25;;;;;;;;;;;;;;;;;;5066455;28;1105;-62
2023/07/27 03:16:51;;;;;;;;;;;;;;;;;;5066179;28;4640;-63
2023/07/27 03:19:16;;;;;;;;;;;;;;;;;;5062093;28;4990;-62
2023/07/27 03:21:41;;;;;;;;;;;;;;;;;;5065425;28;4950;-62
2023/07/27 03:24:07;;;;;;;;;;;;;;;;;;5065511;28;5031;-62
2023/07/27 03:26:32;;;;;;;;;;;;;;;;;;5062730;28;1906;-62
2023/07/27 03:28:57;;;;;;;;;;;;;;;;;;5065569;28;4539;-60
2023/07/27 03:31:23;;;;;;;;;;;;;;;;;;5065657;28;5204;-62
2023/07/27 03:33:48;;;;;;;;;;;;;;;;;;5062987;28;5238;-62
2023/07/27 03:36:14;;;;;;;;;;;;;;;;;;5065391;28;5047;-62
2023/07/27 03:38:40;;;;;;;;;;;;;;;;;;5048698;28;1314;-62
2023/07/27 03:41:05;;;;;;;;;;;;;;;;;;5063795;28;5170;-62
2023/07/27 03:43:30;;;;;;;;;;;;;;;;;;5064366;28;4913;-62
2023/07/27 03:45:55;;;;;;;;;;;;;;;;;;5064318;28;5207;-62
2023/07/27 03:48:21;;;;;;;;;;;;;;;;;;5067736;28;4433;-61
2023/07/27 03:50:46;;;;;;;;;;;;;;;;;;5069120;28;4990;-61
2023/07/27 03:53:11;;;;;;;;;;;;;;;;;;5069658;28;1155;-60
2023/07/27 03:55:37;;;;;;;;;;;;;;;;;;5064671;28;4919;-61
2023/07/27 03:58:02;;;;;;;;;;;;;;;;;;5069486;28;4894;-63
2023/07/27 04:00:27;;;;;;;;;;;;;;;;;;5064357;28;5412;-62
2023/07/27 04:02:52;;;;;;;;;;;;;;;;;;5069619;28;4460;-60
2023/07/27 04:05:18;;;;;;;;;;;;;;;;;;5069768;28;1979;-61
2023/07/27 04:07:43;;;;;;;;;;;;;;;;;;5069370;28;4854;-61
2023/07/27 04:10:08;;;;;;;;;;;;;;;;;;5064204;28;4654;-60
2023/07/27 04:12:33;;;;;;;;;;;;;;;;;;5050619;28;5063;-61
2023/07/27 04:14:59;;;;;;;;;;;;;;;;;;5047788;28;4524;-62
2023/07/27 04:17:24;;;;;;;;;;;;;;;;;;5069103;28;1176;-62
2023/07/27 04:19:49;;;;;;;;;;;;;;;;;;5063934;28;4969;-61
2023/07/27 04:22:14;;;;;;;;;;;;;;;;;;5059587;28;4678;-62
2023/07/27 04:24:44;;;;;;;;;;;;;;;;;;5066018;28;4960;-60
2023/07/27 04:27:09;;;;;;;;;;;;;;;;;;5066897;28;5055;-61
2023/07/27 04:29:35;;;;;;;;;;;;;;;;;;5068957;28;1182;-62
2023/07/27 04:32:00;;;;;;;;;;;;;;;;;;5068643;28;5420;-61
2023/07/27 04:34:25;;;;;;;;;;;;;;;;;;5063792;28;5060;-61
2023/07/27 04:36:50;;;;;;;;;;;;;;;;;;5062470;28;4624;-60
2023/07/27 04:39:16;;;;;;;;;;;;;;;;;;5068426;28;4968;-61
2023/07/27 04:41:41;;;;;;;;;;;;;;;;;;5066078;28;4630;-60
2023/07/27 04:44:06;;;;;;;;;;;;;;;;;;5066023;28;1283;-61
2023/07/27 04:46:31;;;;;;;;;;;;;;;;;;5064307;28;4958;-61
2023/07/27 04:48:57;;;;;;;;;;;;;;;;;;5072338;28;4962;-62
2023/07/27 04:51:22;;;;;;;;;;;;;;;;;;5066477;28;4962;-61
2023/07/27 04:53:47;;;;;;;;;;;;;;;;;;5068418;28;5501;-60
2023/07/27 04:56:12;;;;;;;;;;;;;;;;;;5067423;28;1571;-62
2023/07/27 04:58:38;;;;;;;;;;;;;;;;;;5068099;28;5223;-62
2023/07/27 05:01:03;;;;;;;;;;;;;;;;;;5049786;28;4986;-60
2023/07/27 05:03:28;;;;;;;;;;;;;;;;;;5068373;28;5186;-61
2023/07/27 05:05:53;;;;;;;;;;;;;;;;;;5060835;28;5116;-61
2023/07/27 05:08:19;;;;;;;;;;;;;;;;;;5069540;28;1109;-62
2023/07/27 05:10:44;;;;;;;;;;;;;;;;;;5067345;28;5190;-61
2023/07/27 05:13:09;;;;;;;;;;;;;;;;;;5068127;28;5050;-60
2023/07/27 05:15:35;;;;;;;;;;;;;;;;;;5061537;28;4986;-63
2023/07/27 05:18:00;;;;;;;;;;;;;;;;;;5068360;28;5179;-59
2023/07/27 05:20:25;;;;;;;;;;;;;;;;;;5063318;28;1069;-59
2023/07/27 05:22:50;;;;;;;;;;;;;;;;;;5067849;28;4806;-62
2023/07/27 05:25:16;;;;;;;;;;;;;;;;;;5064942;28;4963;-62
2023/07/27 05:27:41;;;;;;;;;;;;;;;;;;5067527;28;4786;-62
2023/07/27 05:30:07;;;;;;;;;;;;;;;;;;5062695;28;5234;-62
2023/07/27 05:32:32;;;;;;;;;;;;;;;;;;5071582;28;3562;-59
2023/07/27 05:34:57;;;;;;;;;;;;;;;;;;5064726;28;5037;-63
2023/07/27 05:37:22;;;;;;;;;;;;;;;;;;5058105;28;5069;-62
2023/07/27 05:39:48;;;;;;;;;;;;;;;;;;5062338;28;5248;-61
2023/07/27 05:42:13;;;;;;;;;;;;;;;;;;5065459;28;5023;-62
2023/07/27 05:44:38;;;;;;;;;;;;;;;;;;5065070;28;1261;-62
2023/07/27 05:47:04;;;;;;;;;;;;;;;;;;5065137;28;5384;-61
2023/07/27 05:49:30;;;;;;;;;;;;;;;;;;5065622;28;5186;-62
2023/07/27 05:51:55;;;;;;;;;;;;;;;;;;5064812;28;5151;-62
2023/07/27 05:54:20;;;;;;;;;;;;;;;;;;5065996;28;4994;-62
2023/07/27 05:56:46;;;;;;;;;;;;;;;;;;5065881;28;4983;-60
2023/07/27 05:59:11;;;;;;;;;;;;;;;;;;5067732;28;1175;-61
2023/07/27 06:01:36;;;;;;;;;;;;;;;;;;5060872;28;4996;-62
2023/07/27 06:04:03;;;;;;;;;;;;;;;;;;5066805;28;4629;-62
2023/07/27 06:06:28;;;;;;;;;;;;;;;;;;5066367;28;5184;-62
2023/07/27 06:08:53;;;;;;;;;;;;;;;;;;5059575;28;4647;-62
2023/07/27 06:11:19;;;;;;;;;;;;;;;;;;5061005;28;1302;-62
2023/07/27 06:13:44;;;;;;;;;;;;;;;;;;5069532;28;4892;-62
2023/07/27 06:16:10;;;;;;;;;;;;;;;;;;5062605;28;4878;-62
2023/07/27 06:18:35;;;;;;;;;;;;;;;;;;5066964;28;5058;-62
2023/07/27 06:21:00;;;;;;;;;;;;;;;;;;5064029;28;4617;-62
2023/07/27 06:23:26;;;;;;;;;;;;;;;;;;5067170;28;1160;-61
2023/07/27 06:25:51;;;;;;;;;;;;;;;;;;5064948;28;4465;-62
2023/07/27 06:28:16;;;;;;;;;;;;;;;;;;5068491;28;4648;-62
2023/07/27 06:30:41;;;;;;;;;;;;;;;;;;5066858;28;5020;-62
2023/07/27 06:33:07;;;;;;;;;;;;;;;;;;5066646;28;5125;-62
2023/07/27 06:35:32;;;;;;;;;;;;;;;;;;5059014;28;1122;-63
2023/07/27 06:37:57;;;;;;;;;;;;;;;;;;5064802;28;5176;-61
2023/07/27 06:40:23;;;;;;;;;;;;;;;;;;5065167;28;5039;-62
2023/07/27 06:42:48;;;;;;;;;;;;;;;;;;5065750;28;4455;-62
2023/07/27 06:45:13;;;;;;;;;;;;;;;;;;5061138;28;5007;-62
2023/07/27 06:47:38;;;;;;;;;;;;;;;;;;5067089;28;1280;-62
2023/07/27 06:50:04;;;;;;;;;;;;;;;;;;5064191;28;4983;-62
2023/07/27 06:52:29;;;;;;;;;;;;;;;;;;5062252;28;4860;-62
2023/07/27 06:54:54;;;;;;;;;;;;;;;;;;5046809;28;5094;-73
2023/07/27 06:57:20;;;;;;;;;;;;;;;;;;5064074;28;5042;-74
2023/07/27 06:59:46;;;;;;;;;;;;;;;;;;5062460;28;4693;-74
2023/07/27 07:02:11;;;;;;;;;;;;;;;;;;5061915;28;1093;-75
2023/07/27 07:04:36;;;;;;;;;;;;;;;;;;5060616;28;5205;-74
2023/07/27 07:07:01;;;;;;;;;;;;;;;;;;5064195;28;5003;-76
2023/07/27 07:09:27;;;;;;;;;;;;;;;;;;5046218;28;5015;-75
2023/07/27 07:11:52;;;;;;;;;;;;;;;;;;5063078;28;4892;-73
2023/07/27 07:14:17;;;;;;;;;;;;;;;;;;5064231;28;1129;-76
2023/07/27 07:16:42;;;;;;;;;;;;;;;;;;5060433;28;4607;-75
2023/07/27 07:19:08;;;;;;;;;;;;;;;;;;5053584;28;4471;-61
2023/07/27 07:21:33;;;;;;;;;;;;;;;;;;5062642;28;5503;-71
2023/07/27 07:23:58;;;;;;;;;;;;;;;;;;5067095;28;4908;-72
2023/07/27 07:26:24;;;;;;;;;;;;;;;;;;5069644;28;3051;-73
2023/07/27 07:28:49;;;;;;;;;;;;;;;;;;5076081;28;4395;-70
2023/07/27 07:31:14;;;;;;;;;;;;;;;;;;5073198;28;5213;-72
2023/07/27 07:33:40;;;;;;;;;;;;;;;;;;5076296;28;5046;-71
2023/07/27 07:36:05;;;;;;;;;;;;;;;;;;5068771;28;5018;-71
2023/07/27 07:38:30;;;;;;;;;;;;;;;;;;5071675;28;3156;-72
2023/07/27 07:40:55;;;;;;;;;;;;;;;;;;5069883;28;4947;-65
2023/07/27 07:43:21;;;;;;;;;;;;;;;;;;5063218;28;5146;-60
2023/07/27 07:45:46;;;;;;;;;;;;;;;;;;5065422;28;5202;-60
2023/07/27 07:48:11;;;;;;;;;;;;;;;;;;5048945;28;5069;-60
2023/07/27 07:50:37;;;;;;;;;;;;;;;;;;5065353;28;4963;-59
2023/07/27 07:53:05;;;;;;;;;;;;;;;;;;5063497;28;5021;-62
2023/07/27 07:55:33;;;;;;;;;;;;;;;;;;5067248;28;5029;-59
2023/07/27 07:57:58;;;;;;;;;;;;;;;;;;5059989;28;5283;-58
2023/07/27 08:00:24;;;;;;;;;;;;;;;;;;5055860;28;4579;-59
2023/07/27 08:02:49;;;;;;;;;;;;;;;;;;5066179;28;4904;-59
2023/07/27 08:05:15;;;;;;;;;;;;;;;;;;5070648;28;1910;-61
2023/07/27 08:07:41;;;;;;;;;;;;;;;;;;5070387;28;4495;-59
2023/07/27 08:10:06;;;;;;;;;;;;;;;;;;5068724;28;5081;-60
2023/07/27 08:12:31;;;;;;;;;;;;;;;;;;5064893;28;4518;-60
2023/07/27 08:14:56;;;;;;;;;;;;;;;;;;5058539;28;5133;-60
2023/07/27 08:17:22;;;;;;;;;;;;;;;;;;5073899;28;1120;-60
2023/07/27 08:19:48;;;;;;;;;;;;;;;;;;5073070;28;5051;-61
2023/07/27 08:22:13;;;;;;;;;;;;;;;;;;5053810;28;5039;-60
2023/07/27 08:24:38;;;;;;;;;;;;;;;;;;5068718;28;4873;-60
2023/07/27 08:27:05;;;;;;;;;;;;;;;;;;5060543;28;4780;-60
2023/07/27 08:29:30;;;;;;;;;;;;;;;;;;5069303;28;1322;-60
2023/07/27 08:31:55;;;;;;;;;;;;;;;;;;5064235;28;4494;-60
2023/07/27 08:34:21;;;;;;;;;;;;;;;;;;5066910;28;5144;-61
2023/07/27 08:36:50;;;;;;;;;;;;;;;;;;5064173;28;4896;-59
2023/07/27 08:39:15;;;;;;;;;;;;;;;;;;5068644;28;4551;-61
2023/07/27 08:41:40;;;;;;;;;;;;;;;;;;5063543;28;5091;-57
2023/07/27 08:44:06;;;;;;;;;;;;;;;;;;5047954;28;1229;-69
2023/07/27 08:46:32;;;;;;;;;;;;;;;;;;5050861;28;4494;-69
2023/07/27 08:48:57;;;;;;;;;;;;;;;;;;5049265;28;4462;-66
2023/07/27 08:51:22;;;;;;;;;;;;;;;;;;5049428;28;4888;-72
2023/07/27 08:53:48;;;;;;;;;;;;;;;;;;5049527;28;4465;-70
2023/07/27 08:56:13;;;;;;;;;;;;;;;;;;5046696;28;3266;-76
2023/07/27 08:58:38;;;;;;;;;;;;;;;;;;5061207;28;5199;-72
2023/07/27 09:01:03;;;;;;;;;;;;;;;;;;5067851;28;5017;-70
2023/07/27 09:03:29;;;;;;;;;;;;;;;;;;5067563;28;4898;-75
2023/07/27 09:05:58;;;;;;;;;;;;;;;;;;5065269;28;4600;-71
2023/07/27 09:08:23;;;;;;;;;;;;;;;;;;5047499;28;1201;-74
2023/07/27 09:10:48;;;;;;;;;;;;;;;;;;5047497;28;4463;-75
2023/07/27 09:13:13;;;;;;;;;;;;;;;;;;5067328;28;4979;-71
2023/07/27 09:15:43;;;;;;;;;;;;;;;;;;5066850;28;5563;-69
2023/07/27 09:18:08;;;;;;;;;;;;;;;;;;5070510;28;4998;-75
2023/07/27 09:20:34;;;;;;;;;;;;;;;;;;5066514;28;3283;-62
2023/07/27 09:22:59;;;;;;;;;;;;;;;;;;5061682;28;4946;-63
2023/07/27 09:25:24;;;;;;;;;;;;;;;;;;5057324;28;5107;-61
2023/07/27 09:27:56;;;;;;;;;;;;;;;;;;5064061;28;4674;-59
2023/07/27 09:30:22;;;;;;;;;;;;;;;;;;5060872;28;4695;-62
2023/07/27 09:32:47;;;;;;;;;;;;;;;;;;5068880;28;4723;-60
2023/07/27 09:35:13;;;;;;;;;;;;;;;;;;5063247;28;3450;-62
2023/07/27 09:37:45;;;;;;;;;;;;;;;;;;5065045;28;4725;-62
2023/07/27 09:40:12;;;;;;;;;;;;;;;;;;5059888;28;5081;-61
2023/07/27 09:42:38;;;;;;;;;;;;;;;;;;5063601;28;4465;-60
2023/07/27 09:45:03;;;;;;;;;;;;;;;;;;5057827;28;5085;-62
2023/07/27 09:47:31;;;;;;;;;;;;;;;;;;5065273;28;3248;-62
2023/07/27 09:50:02;;;;;;;;;;;;;;;;;;5045490;28;5090;-64
2023/07/27 09:52:28;;;;;;;;;;;;;;;;;;5064825;28;5130;-67
2023/07/27 09:54:56;;;;;;;;;;;;;;;;;;5062672;28;4503;-66
2023/07/27 09:57:21;;;;;;;;;;;;;;;;;;5063607;28;5073;-67
2023/07/27 09:59:47;;;;;;;;;;;;;;;;;;5064309;28;4725;-66
2023/07/27 10:02:13;;;;;;;;;;;;;;;;;;5060456;28;3237;-64
2023/07/27 10:04:38;;;;;;;;;;;;;;;;;;5066071;28;4540;-65
2023/07/27 10:07:04;;;;;;;;;;;;;;;;;;5064910;28;4671;-67
2023/07/27 10:09:29;;;;;;;;;;;;;;;;;;5065910;28;5073;-66
2023/07/27 10:11:59;;;;;;;;;;;;;;;;;;5064497;28;5594;-67
2023/07/27 10:14:26;;;;;;;;;;;;;;;;;;5062561;28;3306;-65
2023/07/27 10:16:57;;;;;;;;;;;;;;;;;;5062853;28;4898;-65
2023/07/27 10:19:22;;;;;;;;;;;;;;;;;;5062964;28;4617;-66
2023/07/27 10:21:48;;;;;;;;;;;;;;;;;;5043153;28;5266;-64
2023/07/27 10:24:14;;;;;;;;;;;;;;;;;;5065309;28;4950;-67
2023/07/27 10:26:40;;;;;;;;;;;;;;;;;;5047239;28;3255;-65
2023/07/27 10:29:23;;;;;;;;;;;;;;;;;;5065750;28;4918;-66
2023/07/27 10:32:02;;;;;;;;;;;;;;;;;;5064688;28;5119;-67
2023/07/27 10:34:28;;;;;;;;;;;;;;;;;;5063749;28;5073;-65
2023/07/27 10:36:57;;;;;;;;;;;;;;;;;;5063929;28;5155;-67
2023/07/27 10:39:29;;;;;;;;;;;;;;;;;;5061244;28;5048;-66
2023/07/27 10:41:58;;;;;;;;;;;;;;;;;;5062028;28;4486;-68
2023/07/27 10:44:27;;;;;;;;;;;;;;;;;;5063849;28;3287;-67
2023/07/27 10:46:59;;;;;;;;;;;;;;;;;;5063914;28;5035;-64
2023/07/27 10:49:24;;;;;;;;;;;;;;;;;;5062009;28;5089;-68
2023/07/27 10:51:49;;;;;;;;;;;;;;;;;;5065602;28;4904;-67
2023/07/27 10:54:14;;;;;;;;;;;;;;;;;;5048103;28;5029;-66
2023/07/27 10:56:43;;;;;;;;;;;;;;;;;;5068068;28;1674;-65
2023/07/27 10:59:12;;;;;;;;;;;;;;;;;;5069888;28;5015;-67
2023/07/27 11:01:37;;;;;;;;;;;;;;;;;;5066796;28;5040;-65
2023/07/27 11:04:02;;;;;;;;;;;;;;;;;;5068750;28;5004;-65
2023/07/27 11:06:28;;;;;;;;;;;;;;;;;;5061470;28;5072;-74
2023/07/27 11:08:54;;;;;;;;;;;;;;;;;;5067004;28;5052;-73
2023/07/27 11:11:20;;;;;;;;;;;;;;;;;;5048127;28;3303;-74
2023/07/27 11:13:52;;;;;;;;;;;;;;;;;;5056111;28;4949;-72
2023/07/27 11:16:23;;;;;;;;;;;;;;;;;;5064891;28;5812;-72
2023/07/27 11:18:56;;;;;;;;;;;;;;;;;;5026924;28;4626;-72
2023/07/27 11:21:27;;;;;;;;;;;;;;;;;;5023384;28;5259;-71
2023/07/27 11:24:03;;;;;;;;;;;;;;;;;;5068330;28;1778;-72
2023/07/27 11:26:35;;;;;;;;;;;;;;;;;;5066204;28;1906;-72
2023/07/27 11:29:03;;;;;;;;;;;;;;;;;;5061271;28;5505;-72
2023/07/27 11:32:00;;;;;;;;;;;;;;;;;;5062666;28;5045;-72
2023/07/27 11:34:37;;;;;;;;;;;;;;;;;;5020732;28;5030;-73
2023/07/27 11:37:05;;;;;;;;;;;;;;;;;;5030659;28;4669;-72
2023/07/27 11:39:31;;;;;;;;;;;;;;;;;;5042557;28;4500;-63
2023/07/27 11:41:56;;;;;;;;;;;;;;;;;;5051049;28;5118;-64
2023/07/27 11:44:22;;;;;;;;;;;;;;;;;;5052872;28;1523;-64
2023/07/27 11:46:48;;;;;;;;;;;;;;;;;;5048417;28;5025;-63
2023/07/27 11:49:14;;;;;;;;;;;;;;;;;;5075837;28;4963;-64
2023/07/27 11:51:39;;;;;;;;;;;;;;;;;;5072669;28;5158;-65
2023/07/27 11:54:05;;;;;;;;;;;;;;;;;;5068988;28;5067;-65
2023/07/27 11:56:33;;;;;;;;;;;;;;;;;;5068143;28;1468;-64
2023/07/27 11:58:58;;;;;;;;;;;;;;;;;;5067878;28;4581;-62
2023/07/27 12:01:23;;;;;;;;;;;;;;;;;;5068518;28;4907;-64
2023/07/27 12:03:48;;;;;;;;;;;;;;;;;;5044074;28;5032;-63
2023/07/27 12:06:14;;;;;;;;;;;;;;;;;;5058095;28;5188;-65
2023/07/27 12:08:39;;;;;;;;;;;;;;;;;;5067690;28;1309;-62
2023/07/27 12:11:04;;;;;;;;;;;;;;;;;;5050126;28;4411;-62
2023/07/27 12:13:31;;;;;;;;;;;;;;;;;;5058626;28;4471;-61
2023/07/27 12:15:57;;;;;;;;;;;;;;;;;;5060093;28;4459;-62
2023/07/27 12:18:24;;;;;;;;;;;;;;;;;;5068533;28;4901;-62
2023/07/27 12:20:49;;;;;;;;;;;;;;;;;;5068078;28;5239;-62
2023/07/27 12:23:15;;;;;;;;;;;;;;;;;;5069960;28;1135;-62
2023/07/27 12:25:40;;;;;;;;;;;;;;;;;;5067705;28;4888;-61
2023/07/27 12:28:06;;;;;;;;;;;;;;;;;;5069254;28;4445;-62
2023/07/27 12:30:31;;;;;;;;;;;;;;;;;;5050478;28;5052;-61
2023/07/27 12:32:56;;;;;;;;;;;;;;;;;;5067306;28;5037;-62
2023/07/27 12:35:21;;;;;;;;;;;;;;;;;;5068819;28;1421;-61
2023/07/27 12:37:47;;;;;;;;;;;;;;;;;;5068686;28;4923;-62
2023/07/27 12:40:12;;;;;;;;;;;;;;;;;;5068320;28;4942;-62
2023/07/27 12:42:38;;;;;;;;;;;;;;;;;;5063863;28;5122;-62
2023/07/27 12:45:03;;;;;;;;;;;;;;;;;;5068254;28;4865;-63
2023/07/27 12:47:29;;;;;;;;;;;;;;;;;;5068078;28;1910;-62
2023/07/27 12:49:54;;;;;;;;;;;;;;;;;;5068142;28;4913;-62
2023/07/27 12:52:19;;;;;;;;;;;;;;;;;;5062240;28;5185;-62
2023/07/27 12:54:44;;;;;;;;;;;;;;;;;;5067699;28;5011;-62
2023/07/27 12:57:10;;;;;;;;;;;;;;;;;;5058551;28;5193;-62
2023/07/27 12:59:35;;;;;;;;;;;;;;;;;;5065617;28;1145;-62
2023/07/27 13:02:00;;;;;;;;;;;;;;;;;;5064483;28;4975;-64
2023/07/27 13:04:25;;;;;;;;;;;;;;;;;;5065311;28;4989;-62
2023/07/27 13:06:51;;;;;;;;;;;;;;;;;;5067924;28;5151;-63
2023/07/27 13:09:16;;;;;;;;;;;;;;;;;;5067848;28;4860;-63
2023/07/27 13:11:41;;;;;;;;;;;;;;;;;;5067445;28;5154;-66
2023/07/27 13:14:07;;;;;;;;;;;;;;;;;;5063185;28;1231;-64
2023/07/27 13:16:33;;;;;;;;;;;;;;;;;;5063570;28;4749;-61
2023/07/27 13:18:59;;;;;;;;;;;;;;;;;;5048293;28;5041;-61
2023/07/27 13:21:24;;;;;;;;;;;;;;;;;;5064765;28;4531;-61
2023/07/27 13:23:49;;;;;;;;;;;;;;;;;;5066693;28;4905;-59
2023/07/27 13:26:15;;;;;;;;;;;;;;;;;;5065490;28;3671;-61
2023/07/27 13:28:40;;;;;;;;;;;;;;;;;;5063502;28;5163;-63
2023/07/27 13:31:05;;;;;;;;;;;;;;;;;;5060123;28;4831;-65
2023/07/27 13:33:30;;;;;;;;;;;;;;;;;;5067828;28;5119;-69
2023/07/27 13:35:56;;;;;;;;;;;;;;;;;;5056582;28;5126;-59
2023/07/27 13:38:21;;;;;;;;;;;;;;;;;;5063818;28;3675;-61
2023/07/27 13:40:46;;;;;;;;;;;;;;;;;;5065386;28;5187;-69
2023/07/27 13:43:12;;;;;;;;;;;;;;;;;;5065419;28;4524;-65
2023/07/27 13:45:37;;;;;;;;;;;;;;;;;;5063977;28;4675;-65
2023/07/27 13:48:03;;;;;;;;;;;;;;;;;;5064620;28;5020;-68
2023/07/27 13:50:29;;;;;;;;;;;;;;;;;;5062193;28;4736;-66
2023/07/27 13:52:54;;;;;;;;;;;;;;;;;;5067006;28;5112;-67
2023/07/27 13:55:19;;;;;;;;;;;;;;;;;;5063386;28;4528;-67
2023/07/27 13:57:44;;;;;;;;;;;;;;;;;;5064098;28;5117;-68
2023/07/27 14:00:10;;;;;;;;;;;;;;;;;;5063797;28;5027;-67
2023/07/27 14:02:36;;;;;;;;;;;;;;;;;;5064184;28;4054;-66
2023/07/27 14:05:01;;;;;;;;;;;;;;;;;;5060940;28;4989;-67
2023/07/27 14:07:26;;;;;;;;;;;;;;;;;;5062334;28;4915;-67
2023/07/27 14:09:52;;;;;;;;;;;;;;;;;;5061741;28;5214;-71
2023/07/27 14:12:18;;;;;;;;;;;;;;;;;;5059754;28;5574;-66
2023/07/27 14:14:43;;;;;;;;;;;;;;;;;;5060560;28;5043;-67
2023/07/27 14:17:08;;;;;;;;;;;;;;;;;;5057735;28;3310;-70
2023/07/27 14:19:34;;;;;;;;;;;;;;;;;;5066837;28;5152;-70
2023/07/27 14:21:59;;;;;;;;;;;;;;;;;;5063578;28;5003;-66
2023/07/27 14:24:24;;;;;;;;;;;;;;;;;;5066747;28;4975;-68
2023/07/27 14:26:49;;;;;;;;;;;;;;;;;;5065348;28;4948;-67
2023/07/27 14:29:15;;;;;;;;;;;;;;;;;;5062312;28;3723;-67
2023/07/27 14:31:40;;;;;;;;;;;;;;;;;;5064043;28;5023;-63
2023/07/27 14:34:06;;;;;;;;;;;;;;;;;;5061036;28;5142;-67
2023/07/27 14:36:31;;;;;;;;;;;;;;;;;;5065383;28;4930;-65
2023/07/27 14:38:57;;;;;;;;;;;;;;;;;;5059429;28;5518;-60
2023/07/27 14:41:22;;;;;;;;;;;;;;;;;;5061130;28;3893;-59
2023/07/27 14:43:47;;;;;;;;;;;;;;;;;;5058994;28;4546;-59
2023/07/27 14:46:13;;;;;;;;;;;;;;;;;;5059029;28;5061;-58
2023/07/27 14:48:39;;;;;;;;;;;;;;;;;;5038223;28;5202;-58
2023/07/27 14:51:04;;;;;;;;;;;;;;;;;;5063533;28;5122;-58
2023/07/27 14:53:30;;;;;;;;;;;;;;;;;;5058601;28;3645;-58
2023/07/27 14:55:55;;;;;;;;;;;;;;;;;;5059191;28;5000;-58
2023/07/27 14:58:20;;;;;;;;;;;;;;;;;;5062904;28;4620;-58
2023/07/27 15:00:45;;;;;;;;;;;;;;;;;;5059326;28;4478;-58
2023/07/27 15:03:11;;;;;;;;;;;;;;;;;;5056975;28;5293;-56
2023/07/27 15:05:36;;;;;;;;;;;;;;;;;;5060773;28;3414;-58
2023/07/27 15:08:01;;;;;;;;;;;;;;;;;;5061992;28;4586;-61
2023/07/27 15:10:27;;;;;;;;;;;;;;;;;;5039148;28;4547;-61
2023/07/27 15:12:52;;;;;;;;;;;;;;;;;;5056672;28;4901;-63
2023/07/27 15:15:17;;;;;;;;;;;;;;;;;;5063657;28;4689;-61
2023/07/27 15:17:43;;;;;;;;;;;;;;;;;;5065781;28;5108;-65
2023/07/27 15:20:08;;;;;;;;;;;;;;;;;;5066961;28;3292;-61
2023/07/27 15:22:33;;;;;;;;;;;;;;;;;;5063897;28;4962;-68
2023/07/27 15:24:59;;;;;;;;;;;;;;;;;;5064180;28;4918;-64
2023/07/27 15:27:24;;;;;;;;;;;;;;;;;;5059348;28;5212;-66
2023/07/27 15:29:54;;;;;;;;;;;;;;;;;;5064230;28;5075;-66
2023/07/27 15:32:21;;;;;;;;;;;;;;;;;;5066500;28;1265;-64
2023/07/27 15:34:46;;;;;;;;;;;;;;;;;;5064655;28;4960;-65
2023/07/27 15:37:11;;;;;;;;;;;;;;;;;;5066008;28;4656;-64
2023/07/27 15:39:36;;;;;;;;;;;;;;;;;;5062950;28;5274;-61
2023/07/27 15:42:03;;;;;;;;;;;;;;;;;;5065206;28;4506;-64
2023/07/27 15:44:28;;;;;;;;;;;;;;;;;;5062549;28;1241;-62
2023/07/27 15:46:53;;;;;;;;;;;;;;;;;;5071983;28;4513;-62
2023/07/27 15:49:19;;;;;;;;;;;;;;;;;;5047226;28;4472;-64
2023/07/27 15:51:44;;;;;;;;;;;;;;;;;;5069050;28;5133;-64
2023/07/27 15:54:09;;;;;;;;;;;;;;;;;;5067268;28;5024;-64
2023/07/27 15:56:34;;;;;;;;;;;;;;;;;;5066615;28;1385;-64
2023/07/27 15:59:00;;;;;;;;;;;;;;;;;;5069227;28;4911;-65
2023/07/27 16:01:25;;;;;;;;;;;;;;;;;;5069346;28;4961;-62
2023/07/27 16:03:50;;;;;;;;;;;;;;;;;;5051342;28;4895;-66
2023/07/27 16:06:15;;;;;;;;;;;;;;;;;;5069296;28;5245;-65
2023/07/27 16:08:41;;;;;;;;;;;;;;;;;;5068994;28;5262;-71
2023/07/27 16:11:08;;;;;;;;;;;;;;;;;;5069832;28;1274;-69
2023/07/27 16:13:33;;;;;;;;;;;;;;;;;;5068964;28;4648;-63
2023/07/27 16:15:58;;;;;;;;;;;;;;;;;;5069298;28;4496;-64
2023/07/27 16:18:24;;;;;;;;;;;;;;;;;;5047281;28;4531;-62
2023/07/27 16:20:49;;;;;;;;;;;;;;;;;;5066337;28;4609;-62
2023/07/27 16:23:15;;;;;;;;;;;;;;;;;;5067585;28;1151;-62
2023/07/27 16:25:41;;;;;;;;;;;;;;;;;;5065724;28;5099;-64
2023/07/27 16:28:06;;;;;;;;;;;;;;;;;;5069482;28;5231;-62
2023/07/27 16:30:31;;;;;;;;;;;;;;;;;;5050761;28;5484;-64
2023/07/27 16:32:57;;;;;;;;;;;;;;;;;;5069106;28;4893;-63
2023/07/27 16:35:22;;;;;;;;;;;;;;;;;;5069505;28;1254;-64
2023/07/27 16:37:47;;;;;;;;;;;;;;;;;;5068983;28;5133;-67
2023/07/27 16:40:13;;;;;;;;;;;;;;;;;;5068481;28;4954;-70
2023/07/27 16:42:38;;;;;;;;;;;;;;;;;;5064897;28;5179;-62
2023/07/27 16:45:03;;;;;;;;;;;;;;;;;;5062919;28;5026;-62
2023/07/27 16:47:29;;;;;;;;;;;;;;;;;;5051172;28;2114;-62
2023/07/27 16:49:54;;;;;;;;;;;;;;;;;;5064795;28;5022;-64
2023/07/27 16:52:19;;;;;;;;;;;;;;;;;;5068992;28;4488;-61
2023/07/27 16:54:45;;;;;;;;;;;;;;;;;;5065772;28;5019;-66